Time;durP1;ratioP1;P1;durP2;ratioP2;P2;SDS_P1;SDS_P2;PMS_P1;PMS_P2;Temp;Humidity;BMP_temperature;BMP_pressure;BME280_temperature;BME280_humidity;BME280_pressure;Samples;Min_cycle;Max_cycle;Signal;HPM_P1;HPM_P2
2022/03/19 00:00:21;;;;;;;13.20;5.07;;;;;;;4.03;86.99;104007.53;6044232;28;20053;-71
2022/03/19 00:03:18;;;;;;;16.10;5.05;;;;;;;4.03;86.55;104002.28;6050186;28;20465;-72
2022/03/19 00:06:14;;;;;;;12.43;4.60;;;;;;;3.99;87.52;104003.22;6046217;28;20033;-71
2022/03/19 00:09:09;;;;;;;13.52;3.95;;;;;;;3.82;87.08;104000.84;6048207;28;20042;-71
2022/03/19 00:12:06;;;;;;;18.92;3.97;;;;;;;3.88;87.78;104006.00;6040611;28;20022;-72
2022/03/19 00:15:02;;;;;;;11.82;3.70;;;;;;;3.68;87.86;104008.03;6044803;28;20377;-73
2022/03/19 00:17:57;;;;;;;12.83;3.93;;;;;;;3.62;88.15;104008.09;6047776;28;20026;-73
2022/03/19 00:20:53;;;;;;;13.97;4.43;;;;;;;3.52;88.96;104010.00;6046928;28;20617;-70
2022/03/19 00:23:48;;;;;;;8.82;3.70;;;;;;;3.42;88.52;104000.53;6047241;28;20022;-70
2022/03/19 00:26:43;;;;;;;12.17;3.67;;;;;;;3.33;88.62;103995.38;6050245;28;20030;-72
2022/03/19 00:29:39;;;;;;;13.47;4.43;;;;;;;3.12;88.85;103995.63;6046989;28;20377;-72
2022/03/19 00:32:34;;;;;;;12.32;4.53;;;;;;;3.08;89.81;104007.03;6044112;28;20033;-70
2022/03/19 00:35:30;;;;;;;9.57;3.47;;;;;;;3.09;89.76;103990.44;6046709;28;20038;-71
2022/03/19 00:38:25;;;;;;;14.53;3.87;;;;;;;2.91;89.84;103994.09;6049304;28;20044;-72
2022/03/19 00:41:21;;;;;;;11.23;4.07;;;;;;;2.69;89.55;103994.34;6047960;28;20766;-70
2022/03/19 00:44:17;;;;;;;11.43;3.88;;;;;;;2.52;90.73;103996.25;6047307;28;20021;-71
2022/03/19 00:47:12;;;;;;;14.25;4.00;;;;;;;2.46;91.07;104009.41;6043471;28;20109;-72
2022/03/19 00:50:08;;;;;;;9.82;3.72;;;;;;;2.70;91.21;104002.19;6048162;28;20026;-72
2022/03/19 00:53:04;;;;;;;12.32;3.63;;;;;;;2.73;90.78;104011.75;6048130;28;20476;-69
2022/03/19 00:55:59;;;;;;;16.08;4.53;;;;;;;2.82;91.19;104012.56;6047386;28;20052;-72
2022/03/19 00:58:54;;;;;;;13.33;4.60;;;;;;;2.93;91.75;104015.94;6049491;28;20034;-72
2022/03/19 01:01:50;;;;;;;19.13;4.93;;;;;;;3.06;90.98;104019.28;6042793;28;20292;-70
2022/03/19 01:04:45;;;;;;;12.50;3.90;;;;;;;3.10;91.54;104022.75;6043481;28;20053;-71
2022/03/19 01:07:41;;;;;;;13.03;4.30;;;;;;;3.15;91.25;104027.06;6046467;28;20310;-70
2022/03/19 01:10:37;;;;;;;17.13;5.15;;;;;;;3.26;91.35;104019.91;6046363;28;20026;-69
2022/03/19 01:13:32;;;;;;;15.65;5.65;;;;;;;3.36;90.67;104023.31;6046840;28;20076;-71
2022/03/19 01:16:27;;;;;;;20.50;6.15;;;;;;;3.29;90.35;104017.25;6048414;28;20046;-71
2022/03/19 01:19:52;;;;;;;23.50;5.63;;;;;;;3.34;90.48;104018.06;6047739;28;20037;-72
2022/03/19 01:22:39;;;;;;;23.88;5.68;;;;;;;3.31;90.29;104018.13;6044920;28;20044;-70
2022/03/19 01:25:34;;;;;;;14.13;5.10;;;;;;;3.29;90.92;104017.25;6044689;28;20027;-71
2022/03/19 01:28:30;;;;;;;12.15;5.20;;;;;;;3.31;89.77;104018.13;6049198;28;20053;-71
2022/03/19 01:31:28;;;;;;;22.23;5.15;;;;;;;3.25;90.46;104027.81;6048231;28;20044;-70
2022/03/19 01:34:23;;;;;;;13.45;4.50;;;;;;;3.15;90.99;104013.97;6046437;28;20459;-71
2022/03/19 01:37:18;;;;;;;13.70;4.77;;;;;;;3.18;89.90;104011.28;6043073;28;20030;-70
2022/03/19 01:40:15;;;;;;;19.97;4.47;;;;;;;3.13;90.00;104002.59;6044946;28;20027;-71
2022/03/19 01:43:10;;;;;;;19.15;5.75;;;;;;;3.10;90.53;103997.38;6042075;28;20033;-69
2022/03/19 01:46:07;;;;;;;13.32;4.82;;;;;;;3.10;91.10;104002.63;6045879;28;20480;-71
2022/03/19 01:49:02;;;;;;;16.08;5.07;;;;;;;3.07;90.61;104007.06;6045597;28;20030;-70
2022/03/19 01:51:58;;;;;;;18.33;4.97;;;;;;;3.05;90.66;104008.81;6042614;28;20045;-70
2022/03/19 01:54:53;;;;;;;20.55;5.22;;;;;;;3.04;90.76;104012.34;6045291;28;20112;-71
2022/03/19 01:57:50;;;;;;;18.70;6.13;;;;;;;3.03;91.09;104006.22;6048554;28;20029;-71
2022/03/19 02:00:45;;;;;;;24.05;5.65;;;;;;;3.03;90.99;104000.09;6045051;28;20053;-71
2022/03/19 02:03:41;;;;;;;21.13;5.30;;;;;;;2.99;91.13;104001.88;6045433;28;20101;-70
2022/03/19 02:06:36;;;;;;;13.73;6.18;;;;;;;2.96;90.80;103991.47;6045367;28;20080;-68
2022/03/19 02:09:32;;;;;;;20.98;6.38;;;;;;;2.93;91.44;103989.75;6044602;28;20560;-71
2022/03/19 02:12:28;;;;;;;21.73;6.50;;;;;;;2.94;91.02;103996.69;6054029;28;20028;-70
2022/03/19 02:15:23;;;;;;;22.17;7.93;;;;;;;2.80;91.18;103984.63;6043704;28;20030;-69
2022/03/19 02:18:18;;;;;;;20.10;5.60;;;;;;;2.82;91.41;103988.97;6047646;28;20080;-70
2022/03/19 02:21:14;;;;;;;19.67;5.90;;;;;;;2.72;91.39;103989.06;6048171;28;20034;-71
2022/03/19 02:27:24;;;;;;;20.85;6.47;;;;;;;2.72;91.78;103994.28;6047181;28;20026;-69
2022/03/19 02:30:19;;;;;;;21.27;5.67;;;;;;;2.73;91.88;103990.81;6048174;28;20457;-70
2022/03/19 02:33:14;;;;;;;16.67;6.10;;;;;;;2.67;91.55;103986.50;6049869;28;20655;-70
2022/03/19 02:36:10;;;;;;;23.97;7.03;;;;;;;2.65;91.75;103992.63;6054457;28;20052;-69
2022/03/19 02:39:31;;;;;;;23.40;6.50;;;;;;;2.58;92.61;103996.22;6054217;28;20037;-70
2022/03/19 02:42:26;;;;;;;19.20;6.70;;;;;;;2.54;91.93;103989.25;6051129;28;20042;-70
2022/03/19 02:45:22;;;;;;;19.80;5.70;;;;;;;2.43;92.21;103994.56;6054346;28;20480;-70
2022/03/19 02:48:17;;;;;;;19.35;7.50;;;;;;;2.49;92.99;103993.66;6054246;28;20497;-71
2022/03/19 02:51:13;;;;;;;23.23;6.27;;;;;;;2.44;93.16;103995.44;6053161;28;20041;-70
2022/03/19 02:54:10;;;;;;;16.45;7.30;;;;;;;2.37;93.08;103994.63;6054041;28;20585;-69
2022/03/19 02:57:06;;;;;;;24.48;7.00;;;;;;;2.35;92.83;104001.63;6053593;28;20029;-70
2022/03/19 03:00:01;;;;;;;15.43;5.63;;;;;;;2.28;92.61;103987.72;6052931;28;20060;-72
2022/03/19 03:02:56;;;;;;;17.30;5.83;;;;;;;2.16;92.80;103987.81;6053806;28;20273;-70
2022/03/19 03:05:52;;;;;;;17.77;5.13;;;;;;;2.21;92.37;103991.25;6054060;28;20728;-73
2022/03/19 03:08:47;;;;;;;20.70;4.93;;;;;;;2.20;93.18;103989.50;6053722;28;20358;-72
2022/03/19 03:11:42;;;;;;;22.75;6.57;;;;;;;2.18;92.95;103988.66;6052895;28;20168;-69
2022/03/19 03:14:38;;;;;;;17.13;5.30;;;;;;;2.10;93.31;103995.72;6053299;28;20040;-70
2022/03/19 03:17:34;;;;;;;20.33;5.17;;;;;;;2.11;92.66;103984.38;6053627;28;20080;-69
2022/03/19 03:20:29;;;;;;;13.73;5.10;;;;;;;2.01;93.14;103998.38;6053019;28;20257;-70
2022/03/19 03:23:26;;;;;;;25.40;5.18;;;;;;;1.96;93.54;103989.69;6051718;28;20092;-70
2022/03/19 03:26:23;;;;;;;14.98;5.47;;;;;;;1.92;93.24;103988.00;6053557;28;20497;-71
2022/03/19 03:29:18;;;;;;;22.88;6.07;;;;;;;2.04;92.95;103976.59;6053034;28;20030;-70
2022/03/19 03:32:13;;;;;;;17.03;5.50;;;;;;;1.99;93.69;103984.44;6052216;28;20045;-70
2022/03/19 03:35:08;;;;;;;17.47;5.73;;;;;;;1.96;93.70;103994.09;6053420;28;20022;-71
2022/03/19 03:38:04;;;;;;;18.77;7.25;;;;;;;1.91;93.47;103981.00;6052667;28;20354;-71
2022/03/19 03:40:59;;;;;;;27.87;7.13;;;;;;;2.02;93.86;103981.81;6052596;28;20026;-70
2022/03/19 03:43:55;;;;;;;32.28;7.90;;;;;;;1.99;94.06;103994.03;6051834;28;20049;-72
2022/03/19 03:46:50;;;;;;;21.73;7.80;;;;;;;1.91;93.62;103978.41;6052025;28;20034;-71
2022/03/19 03:49:45;;;;;;;21.67;7.23;;;;;;;1.96;93.90;103987.09;6052828;28;20072;-70
2022/03/19 03:52:41;;;;;;;19.10;9.73;;;;;;;1.95;93.41;103982.75;6051473;28;20358;-72
2022/03/19 03:55:37;;;;;;;25.97;7.87;;;;;;;1.82;93.63;103986.31;6052670;28;20025;-72
2022/03/19 03:58:33;;;;;;;19.83;5.55;;;;;;;1.81;94.17;103995.03;6051965;28;20030;-72
2022/03/19 04:01:28;;;;;;;21.93;7.87;;;;;;;1.84;93.95;103992.41;6052001;28;20026;-68
2022/03/19 04:04:23;;;;;;;20.07;6.07;;;;;;;1.79;93.44;103986.34;6052125;28;20718;-70
2022/03/19 04:07:19;;;;;;;16.07;5.67;;;;;;;1.77;93.73;103982.84;6052534;28;20041;-71
2022/03/19 04:10:14;;;;;;;18.65;5.90;;;;;;;1.66;93.62;103989.88;6051510;28;20049;-71
2022/03/19 04:13:09;;;;;;;16.38;6.07;;;;;;;1.64;93.78;103981.19;6052037;28;20025;-69
2022/03/19 04:16:05;;;;;;;24.83;7.53;;;;;;;1.59;93.69;103988.19;6052561;28;20108;-72
2022/03/19 04:19:00;;;;;;;19.33;6.30;;;;;;;1.60;94.15;103992.56;6051823;28;20041;-70
2022/03/19 04:21:56;;;;;;;23.50;7.20;;;;;;;1.56;94.42;103986.47;6051496;28;20030;-70
2022/03/19 04:24:51;;;;;;;21.10;6.40;;;;;;;1.54;93.91;103987.34;6051941;28;20508;-71
2022/03/19 04:27:51;;;;;;;21.70;7.40;;;;;;;1.55;94.07;103986.47;6051758;28;20385;-69
2022/03/19 04:30:47;;;;;;;15.20;6.43;;;;;;;1.50;94.36;103983.88;6051518;28;20029;-71
2022/03/19 04:33:42;;;;;;;24.00;7.45;;;;;;;1.51;94.27;103982.13;6051081;28;20041;-71
2022/03/19 04:36:37;;;;;;;19.53;7.30;;;;;;;1.44;94.32;103980.44;6052196;28;20400;-70
2022/03/19 04:39:33;;;;;;;16.67;6.37;;;;;;;1.35;94.68;103972.63;6051624;28;20068;-69
2022/03/19 04:42:28;;;;;;;21.47;6.87;;;;;;;1.30;94.88;103962.19;6050703;28;20026;-70
2022/03/19 04:45:24;;;;;;;19.10;5.10;;;;;;;1.28;94.51;103965.69;6051922;28;20272;-69
2022/03/19 04:48:19;;;;;;;20.25;6.00;;;;;;;1.31;94.38;103970.88;6051251;28;20026;-70
2022/03/19 04:51:17;;;;;;;18.23;7.27;;;;;;;1.28;94.28;103971.75;6050093;28;20026;-70
2022/03/19 04:54:12;;;;;;;26.52;6.78;;;;;;;1.26;94.55;103962.19;6051624;28;20028;-70
2022/03/19 04:57:08;;;;;;;17.27;5.17;;;;;;;1.36;94.34;103966.53;6051026;28;20034;-69
2022/03/19 05:00:04;;;;;;;14.50;4.97;;;;;;;1.34;94.42;103963.91;6050886;28;20265;-69
2022/03/19 05:02:59;;;;;;;15.00;6.40;;;;;;;1.34;93.99;103974.38;6050722;28;20113;-71
2022/03/19 05:05:55;;;;;;;12.90;5.10;;;;;;;1.28;93.83;103968.31;6050751;28;20040;-71
2022/03/19 05:11:12;;;;;;;19.83;5.63;;;;;;;1.23;94.51;103976.16;6051167;28;20025;-71
2022/03/19 05:12:06;;;;;;;12.15;4.55;;;;;;;1.20;93.68;103971.81;6048893;28;20041;-71
2022/03/19 05:15:01;;;;;;;21.23;6.13;;;;;;;1.04;93.57;103980.56;6056768;28;20026;-70
2022/03/19 05:17:56;;;;;;;22.07;5.30;;;;;;;0.82;93.62;103975.41;6057368;28;20145;-70
2022/03/19 05:20:53;;;;;;;23.93;6.23;;;;;;;0.72;93.93;103977.19;6049639;28;20030;-69
2022/03/19 05:23:48;;;;;;;14.88;4.60;;;;;;;0.62;93.94;103980.69;6050363;28;20030;-70
2022/03/19 05:26:43;;;;;;;13.40;4.33;;;;;;;0.66;94.20;103985.00;6050219;28;20034;-71
2022/03/19 05:29:39;;;;;;;22.30;4.70;;;;;;;0.85;93.94;103981.50;6050509;28;20028;-71
2022/03/19 05:32:35;;;;;;;13.88;4.93;;;;;;;0.93;94.28;103979.72;6049781;28;20424;-69
2022/03/19 05:35:31;;;;;;;15.95;5.63;;;;;;;0.76;94.51;103973.66;6050764;28;20384;-70
2022/03/19 05:38:26;;;;;;;27.00;7.63;;;;;;;0.99;94.31;103974.50;6049310;28;20029;-70
2022/03/19 05:41:22;;;;;;;27.23;8.13;;;;;;;0.90;93.99;103978.88;6049786;28;20389;-70
2022/03/19 05:44:17;;;;;;;19.73;7.10;;;;;;;0.65;93.45;103983.28;6049497;28;20033;-70
2022/03/19 05:47:12;;;;;;;15.10;5.90;;;;;;;0.49;93.69;103965.91;6049977;28;20853;-69
2022/03/19 05:50:08;;;;;;;12.50;5.40;;;;;;;0.39;94.02;103974.59;6048884;28;20018;-70
2022/03/19 05:53:03;;;;;;;18.02;5.25;;;;;;;0.45;94.21;103966.78;6049818;28;20076;-69
2022/03/19 05:55:58;;;;;;;12.00;4.50;;;;;;;0.56;94.65;103978.06;6050031;28;20112;-70
2022/03/19 05:58:55;;;;;;;19.63;5.23;;;;;;;0.77;94.66;103967.59;6049942;28;20728;-71
2022/03/19 06:01:50;;;;;;;10.57;4.30;;;;;;;0.59;94.78;103962.41;6048920;28;20492;-70
2022/03/19 06:04:46;;;;;;;13.45;4.75;;;;;;;0.82;94.90;103964.94;6049533;28;20030;-70
2022/03/19 06:07:41;;;;;;;12.40;4.47;;;;;;;0.93;94.97;103971.03;6046522;28;20049;-71
2022/03/19 06:10:36;;;;;;;9.87;4.73;;;;;;;1.11;94.91;103971.00;6043735;28;20037;-70
2022/03/19 06:13:32;;;;;;;22.47;5.53;;;;;;;1.64;94.86;103970.72;6050062;28;20030;-70
2022/03/19 06:16:27;;;;;;;19.80;5.00;;;;;;;2.17;95.07;103973.88;6043432;28;20034;-71
2022/03/19 06:19:22;;;;;;;12.40;4.53;;;;;;;2.19;93.56;103961.63;6049586;28;20087;-70
2022/03/19 06:22:17;;;;;;;15.83;4.87;;;;;;;2.06;91.75;103957.38;6048937;28;20787;-72
2022/03/19 06:25:13;;;;;;;14.03;4.37;;;;;;;2.64;91.84;103956.84;6048790;28;20272;-70
2022/03/19 06:28:08;;;;;;;17.38;4.65;;;;;;;2.65;90.77;103956.84;6049800;28;20457;-70
2022/03/19 06:31:04;;;;;;;14.48;4.90;;;;;;;2.81;89.81;103947.06;6047402;28;20071;-71
2022/03/19 06:33:59;;;;;;;18.80;4.43;;;;;;;3.15;88.80;103943.16;6048515;28;20038;-70
2022/03/19 06:40:09;;;;;;;16.55;4.40;;;;;;;3.52;86.19;103947.03;6048149;28;20034;-69
2022/03/19 06:43:04;;;;;;;10.90;3.78;;;;;;;3.35;85.65;103956.00;6048839;28;20025;-69
2022/03/19 06:45:59;;;;;;;13.53;5.20;;;;;;;3.12;86.20;103948.44;6049816;28;20373;-70
2022/03/19 06:48:55;;;;;;;11.93;4.07;;;;;;;3.11;85.68;103951.06;6049147;28;20096;-70
2022/03/19 06:51:50;;;;;;;17.90;4.20;;;;;;;3.17;85.17;103946.63;6047254;28;20029;-71
2022/03/19 06:54:45;;;;;;;19.77;4.60;;;;;;;3.56;84.95;103953.13;6048961;28;20037;-70
2022/03/19 06:57:40;;;;;;;12.93;4.03;;;;;;;3.62;83.21;103945.13;6049110;28;20373;-70
2022/03/19 07:00:37;;;;;;;12.17;3.50;;;;;;;3.33;83.39;103956.03;6048235;28;20028;-70
2022/03/19 07:03:32;;;;;;;12.43;3.63;;;;;;;3.45;83.25;103955.84;6049005;28;20028;-69
2022/03/19 07:06:27;;;;;;;13.30;4.37;;;;;;;3.43;83.35;103955.03;6042712;28;20042;-71
2022/03/19 07:09:23;;;;;;;14.37;3.87;;;;;;;3.54;82.26;103947.88;6048949;28;20499;-71
2022/03/19 07:12:18;;;;;;;17.83;4.40;;;;;;;3.49;83.46;103960.19;6047996;28;20034;-71
2022/03/19 07:15:15;;;;;;;15.67;3.90;;;;;;;3.69;83.31;103951.19;6048714;28;20049;-72
2022/03/19 07:18:11;;;;;;;15.35;3.72;;;;;;;3.93;81.45;103940.31;6047585;28;20561;-68
2022/03/19 07:21:06;;;;;;;11.93;4.00;;;;;;;4.06;81.04;103944.47;6048383;28;20025;-71
2022/03/19 07:24:01;;;;;;;18.47;3.53;;;;;;;4.10;80.58;103940.91;6053292;28;20108;-70
2022/03/19 07:26:57;;;;;;;13.57;4.23;;;;;;;4.33;79.84;103951.00;6053367;28;20053;-70
2022/03/19 07:29:52;;;;;;;14.10;3.67;;;;;;;4.35;79.73;103939.59;6053629;28;20377;-71
2022/03/19 07:32:48;;;;;;;15.65;3.65;;;;;;;4.52;78.92;103942.78;6052805;28;20526;-72
2022/03/19 07:35:43;;;;;;;15.32;3.78;;;;;;;4.41;78.63;103942.13;6053020;28;20038;-73
2022/03/19 07:38:39;;;;;;;15.18;3.42;;;;;;;4.42;78.24;103935.97;6053409;28;20103;-71
2022/03/19 07:41:48;;;;;;;16.90;4.15;;;;;;;4.50;79.71;103934.06;6052207;28;20034;-71
2022/03/19 07:44:44;;;;;;;15.65;3.88;;;;;;;4.73;78.26;103929.25;6046114;28;20120;-72
2022/03/19 07:47:39;;;;;;;10.00;3.00;;;;;;;4.86;77.98;103927.25;6053024;28;20033;-73
2022/03/19 07:50:34;;;;;;;12.20;3.80;;;;;;;5.01;77.23;103926.06;6052268;28;20026;-72
2022/03/19 07:53:29;;;;;;;15.30;3.25;;;;;;;5.05;76.04;103928.63;6052979;28;20037;-71
2022/03/19 07:56:25;;;;;;;11.00;2.90;;;;;;;5.03;75.55;103929.56;6050304;28;20420;-69
2022/03/19 07:59:21;;;;;;;14.55;3.60;;;;;;;5.12;75.91;103934.59;6047955;28;20026;-69
2022/03/19 08:02:17;;;;;;;12.60;4.40;;;;;;;5.34;75.76;103934.13;6049196;28;20038;-72
2022/03/19 08:05:13;;;;;;;8.38;2.42;;;;;;;5.39;75.25;103928.75;6050392;28;20025;-73
2022/03/19 08:08:08;;;;;;;14.17;2.80;;;;;;;5.63;75.34;103932.59;6052295;28;20072;-72
2022/03/19 08:11:04;;;;;;;11.75;2.88;;;;;;;5.67;73.83;103926.38;6049283;28;20272;-69
2022/03/19 08:13:59;;;;;;;14.10;3.30;;;;;;;5.81;73.22;103933.06;6050288;28;20042;-72
2022/03/19 08:16:55;;;;;;;17.10;2.60;;;;;;;5.86;73.91;103928.59;6049498;28;20285;-73
2022/03/19 08:19:50;;;;;;;9.25;3.05;;;;;;;6.14;72.17;103933.19;6049873;28;20461;-69
2022/03/19 08:22:46;;;;;;;13.45;3.08;;;;;;;6.30;71.61;103926.63;6049475;28;20018;-70
2022/03/19 08:25:42;;;;;;;9.73;2.87;;;;;;;6.44;71.44;103929.75;6051035;28;20021;-71
2022/03/19 08:28:37;;;;;;;6.50;2.60;;;;;;;6.38;71.63;103925.53;6050461;28;20029;-70
2022/03/19 08:31:33;;;;;;;7.97;2.43;;;;;;;6.36;70.17;103915.91;6049185;28;20026;-71
2022/03/19 08:34:28;;;;;;;12.13;2.92;;;;;;;6.47;70.24;103927.03;6051471;28;20084;-70
2022/03/19 08:37:24;;;;;;;11.77;2.90;;;;;;;6.60;70.70;103910.00;6050655;28;20034;-69
2022/03/19 08:40:21;;;;;;;8.00;2.30;;;;;;;6.63;68.99;103928.38;6050598;28;20547;-71
2022/03/19 08:43:16;;;;;;;7.25;2.67;;;;;;;6.82;68.21;103926.09;6051081;28;20312;-71
2022/03/19 08:46:12;;;;;;;9.07;2.40;;;;;;;6.71;68.61;103928.16;6048046;28;20020;-71
2022/03/19 08:49:07;;;;;;;9.53;2.50;;;;;;;6.64;68.71;103922.16;6050249;28;20042;-70
2022/03/19 08:52:03;;;;;;;6.87;2.60;;;;;;;6.81;69.26;103934.91;6049538;28;20116;-71
2022/03/19 08:54:59;;;;;;;10.38;2.60;;;;;;;6.79;68.40;103932.31;6051126;28;20152;-70
2022/03/19 08:57:55;;;;;;;10.40;2.88;;;;;;;7.16;69.76;103911.00;6048906;28;20030;-71
2022/03/19 09:00:50;;;;;;;7.40;2.30;;;;;;;7.29;67.33;103911.50;6049754;28;20041;-69
2022/03/19 09:03:45;;;;;;;8.87;2.70;;;;;;;7.42;67.23;103905.78;6050768;28;20033;-70
2022/03/19 09:06:41;;;;;;;8.60;2.47;;;;;;;7.50;68.28;103902.94;6045782;28;20044;-71
2022/03/19 09:09:36;;;;;;;7.50;2.47;;;;;;;7.48;67.27;103908.25;6049570;28;20481;-72
2022/03/19 09:12:32;;;;;;;10.03;2.87;;;;;;;7.94;68.07;103907.66;6049895;28;20064;-71
2022/03/19 09:15:27;;;;;;;9.50;2.63;;;;;;;8.18;64.72;103895.41;6049510;28;20109;-70
2022/03/19 09:18:22;;;;;;;11.50;3.00;;;;;;;7.61;66.52;103892.91;6049326;28;20665;-71
2022/03/19 09:21:18;;;;;;;9.80;2.57;;;;;;;7.93;65.90;103900.66;6047292;28;20416;-71
2022/03/19 09:24:15;;;;;;;8.38;2.00;;;;;;;7.94;64.86;103899.72;6049815;28;20285;-72
2022/03/19 09:27:10;;;;;;;7.82;3.00;;;;;;;7.90;65.68;103884.03;6050314;28;20145;-71
2022/03/19 09:30:08;;;;;;;8.10;2.40;;;;;;;7.94;66.06;103880.34;6047836;28;20057;-70
2022/03/19 09:33:03;;;;;;;7.32;2.65;;;;;;;8.35;64.28;103878.06;6049699;28;20065;-72
2022/03/19 09:36:01;;;;;;;8.43;2.10;;;;;;;8.45;63.43;103867.16;6050221;28;20156;-72
2022/03/19 09:38:56;;;;;;;8.00;2.10;;;;;;;8.53;62.78;103870.41;6050489;28;20291;-72
2022/03/19 09:41:53;;;;;;;7.97;1.67;;;;;;;8.45;61.29;103868.03;6049711;28;20046;-72
2022/03/19 09:44:49;;;;;;;8.52;2.00;;;;;;;8.58;61.52;103866.69;6049986;28;20033;-71
2022/03/19 09:47:44;;;;;;;7.27;1.70;;;;;;;8.83;58.65;103875.41;6049071;28;20026;-72
2022/03/19 09:50:39;;;;;;;7.07;2.00;;;;;;;8.69;60.01;103863.63;6049476;28;20489;-70
2022/03/19 09:53:35;;;;;;;10.60;2.00;;;;;;;8.87;59.45;103860.28;6050334;28;20057;-71
2022/03/19 09:56:31;;;;;;;7.72;2.30;;;;;;;9.07;60.95;103852.47;6049928;28;20057;-73
2022/03/19 09:59:27;;;;;;;7.35;1.95;;;;;;;9.19;58.63;103849.34;6050028;28;20037;-71
2022/03/19 10:02:22;;;;;;;8.60;2.00;;;;;;;9.43;59.01;103837.75;6048610;28;20033;-72
2022/03/19 10:08:39;;;;;;;;;;;;;;;9.39;57.85;103838.81;6050765;28;20601;-72
2022/03/19 10:11:35;;;;;;;5.95;1.90;;;;;;;9.24;59.43;103831.47;6048894;28;19921;-71
2022/03/19 10:14:32;;;;;;;10.00;1.70;;;;;;;9.54;57.80;103832.91;6050110;28;20076;-71
2022/03/19 10:17:32;;;;;;;8.27;1.80;;;;;;;9.77;57.68;103828.44;6049632;28;20501;-72
2022/03/19 10:20:27;;;;;;;8.70;2.13;;;;;;;10.05;56.03;103834.31;6049160;28;20030;-71
2022/03/19 10:23:34;;;;;;;5.97;1.33;;;;;;;10.12;54.33;103819.84;6049441;28;20472;-72
2022/03/19 10:26:37;;;;;;;6.85;1.70;;;;;;;10.27;56.06;103819.22;6049049;28;20280;-71
2022/03/19 10:29:35;;;;;;;5.65;1.50;;;;;;;10.12;54.48;103811.88;6049487;28;20034;-72
2022/03/19 10:32:30;;;;;;;10.93;1.92;;;;;;;10.01;56.23;103808.84;6048555;28;20037;-72
2022/03/19 10:35:39;;;;;;;5.10;1.43;;;;;;;10.36;55.29;103804.66;6049455;28;20029;-71
2022/03/19 10:38:46;;;;;;;8.18;1.30;;;;;;;10.67;53.19;103802.34;6049323;28;20033;-70
2022/03/19 10:41:43;;;;;;;3.35;1.27;;;;;;;10.42;53.30;103785.81;6048231;28;20022;-71
2022/03/19 10:44:38;;;;;;;7.82;1.67;;;;;;;10.76;53.17;103794.81;6049477;28;20029;-71
2022/03/19 10:47:45;;;;;;;7.78;1.40;;;;;;;10.63;52.20;103784.84;6048787;28;20084;-72
2022/03/19 10:50:41;;;;;;;9.43;1.05;;;;;;;10.81;51.44;103788.44;6048815;28;20369;-72
2022/03/19 10:53:36;;;;;;;8.88;2.50;;;;;;;11.02;52.53;103776.78;6048027;28;20038;-72
2022/03/19 10:56:32;;;;;;;4.87;1.40;;;;;;;10.67;50.30;103767.84;6052047;28;20424;-72
2022/03/19 10:59:31;;;;;;;5.03;1.20;;;;;;;10.95;51.30;103764.75;6053714;28;20273;-72
2022/03/19 11:02:28;;;;;;;6.25;2.00;;;;;;;10.91;49.23;103744.59;6052016;28;20030;-71
2022/03/19 11:05:24;;;;;;;5.28;1.02;;;;;;;10.85;48.39;103759.00;6052861;28;20066;-72
2022/03/19 11:08:51;;;;;;;7.05;1.27;;;;;;;11.02;49.45;103745.81;6046863;28;20040;-70
2022/03/19 11:11:56;;;;;;;5.22;1.30;;;;;;;11.05;49.80;103745.66;6051384;28;20092;-71
2022/03/19 11:14:53;;;;;;;3.88;0.85;;;;;;;10.96;49.02;103750.53;6068886;28;20030;-73
2022/03/19 11:17:49;;;;;;;9.60;1.75;;;;;;;11.24;48.87;103729.66;6053026;28;20045;-72
2022/03/19 11:20:45;;;;;;;2.97;0.90;;;;;;;11.15;48.35;103724.81;6051003;28;20087;-71
2022/03/19 11:23:48;;;;;;;4.15;1.00;;;;;;;11.18;48.69;103714.03;6049126;28;20025;-74
2022/03/19 11:26:43;;;;;;;8.20;1.20;;;;;;;11.01;47.36;103714.84;6056741;28;20032;-70
2022/03/19 11:29:39;;;;;;;5.60;0.90;;;;;;;10.91;46.71;103695.00;6044694;28;20037;-72
2022/03/19 11:32:34;;;;;;;3.13;0.90;;;;;;;10.50;47.51;103707.59;6048629;28;20296;-71
2022/03/19 11:35:31;;;;;;;4.00;0.67;;;;;;;9.98;48.70;103701.13;6044693;28;20026;-70
2022/03/19 11:38:31;;;;;;;6.00;1.45;;;;;;;9.89;49.64;103700.72;6052672;28;20041;-71
2022/03/19 11:41:30;;;;;;;3.53;0.80;;;;;;;10.23;48.44;103679.72;6051613;28;20480;-70
2022/03/19 11:44:27;;;;;;;5.93;1.20;;;;;;;10.24;48.93;103684.09;6052370;28;20493;-70
2022/03/19 11:47:32;;;;;;;5.38;0.90;;;;;;;9.94;48.81;103682.81;6044206;28;20347;-71
2022/03/19 11:50:30;;;;;;;3.40;0.93;;;;;;;10.26;48.03;103681.34;6051603;28;20018;-72
2022/03/19 11:53:25;;;;;;;5.82;1.20;;;;;;;10.58;47.50;103678.91;6027244;28;20053;-71
2022/03/19 11:56:48;;;;;;;5.53;1.30;;;;;;;10.53;47.58;103680.94;6028078;28;20561;-71
2022/03/19 11:59:44;;;;;;;3.92;1.00;;;;;;;10.65;48.26;103676.84;6033636;28;20034;-71
2022/03/19 12:03:08;;;;;;;3.10;1.23;;;;;;;11.30;46.31;103665.63;6037473;28;20465;-72
2022/03/19 12:06:36;;;;;;;7.18;1.15;;;;;;;11.21;47.09;103666.06;6025653;28;20094;-71
2022/03/19 12:09:52;;;;;;;4.75;1.10;;;;;;;11.31;46.40;103664.66;6036351;28;20048;-71
2022/03/19 12:12:47;;;;;;;5.18;1.15;;;;;;;11.05;47.30;103665.13;6028298;28;20113;-72
2022/03/19 12:15:42;;;;;;;5.47;1.20;;;;;;;10.83;47.96;103654.69;6027878;28;20041;-71
2022/03/19 12:18:38;;;;;;;2.75;1.02;;;;;;;10.94;47.80;103647.06;6027600;28;20033;-73
2022/03/19 12:21:37;;;;;;;4.35;1.30;;;;;;;10.73;48.46;103643.66;6028014;28;20065;-73
2022/03/19 12:24:37;;;;;;;3.17;1.38;;;;;;;11.10;48.52;103642.72;6027196;28;20045;-73
2022/03/19 12:27:32;;;;;;;3.95;1.08;;;;;;;10.81;48.51;103635.34;6040440;28;20030;-72
2022/03/19 12:30:27;;;;;;;4.60;1.10;;;;;;;10.64;49.15;103632.66;6037234;28;20033;-72
2022/03/19 12:33:32;;;;;;;4.43;1.10;;;;;;;10.13;50.51;103638.66;6027953;28;20042;-72
2022/03/19 12:36:28;;;;;;;3.65;0.90;;;;;;;9.97;52.02;103632.31;6027863;28;20033;-69
2022/03/19 12:39:23;;;;;;;3.60;1.13;;;;;;;10.40;51.99;103628.53;6030527;28;20033;-71
2022/03/19 12:42:31;;;;;;;3.40;1.00;;;;;;;10.49;50.03;103602.41;6040533;28;20021;-72
2022/03/19 12:45:40;;;;;;;2.83;1.10;;;;;;;11.18;48.48;103605.13;6043279;28;20038;-71
2022/03/19 12:48:39;;;;;;;4.07;1.05;;;;;;;11.80;46.49;103589.41;6036746;28;20034;-74
2022/03/19 12:51:38;;;;;;;4.30;1.55;;;;;;;11.57;45.26;103576.47;6026779;28;20030;-70
2022/03/19 12:54:34;;;;;;;3.33;1.05;;;;;;;11.50;46.22;103575.06;6031308;28;20030;-73
2022/03/19 12:57:31;;;;;;;4.38;1.10;;;;;;;10.59;47.40;103586.91;6027473;28;20033;-70
2022/03/19 13:00:26;;;;;;;9.43;1.15;;;;;;;10.62;48.49;103570.84;6026807;28;20041;-72
2022/03/19 13:03:29;;;;;;;1.55;0.70;;;;;;;10.24;48.63;103564.75;6033570;28;20030;-71
2022/03/19 13:06:41;;;;;;;6.22;1.00;;;;;;;10.49;48.53;103565.25;6027150;28;20414;-71
2022/03/19 13:09:39;;;;;;;4.00;0.93;;;;;;;10.90;47.62;103554.38;6025733;28;20393;-69
2022/03/19 13:12:34;;;;;;;2.70;0.90;;;;;;;11.26;47.06;103557.78;6026211;28;20026;-69
2022/03/19 13:15:29;;;;;;;3.80;0.77;;;;;;;11.18;46.22;103547.56;6027266;28;20601;-69
2022/03/19 13:18:29;;;;;;;3.43;0.80;;;;;;;11.18;46.27;103534.28;6026202;28;20026;-69
2022/03/19 13:21:24;;;;;;;1.80;0.43;;;;;;;11.55;44.62;103538.47;6025690;28;20269;-72
2022/03/19 13:24:21;;;;;;;4.50;0.90;;;;;;;11.69;43.51;103520.00;6015703;28;20382;-70
2022/03/19 13:27:17;;;;;;;4.95;0.80;;;;;;;11.78;44.42;103523.97;6026614;28;20109;-70
2022/03/19 13:30:12;;;;;;;4.75;0.82;;;;;;;11.63;43.83;103515.00;6037155;28;20030;-72
2022/03/19 13:33:13;;;;;;;1.40;0.60;;;;;;;11.10;44.74;103509.91;6026722;28;20037;-70
2022/03/19 13:36:09;;;;;;;5.57;0.63;;;;;;;10.83;45.57;103510.50;6029004;28;20261;-72
2022/03/19 13:39:06;;;;;;;3.75;1.27;;;;;;;10.58;45.30;103510.88;6033036;28;20030;-72
2022/03/19 13:42:12;;;;;;;3.08;1.10;;;;;;;10.89;44.77;103499.56;6031606;28;20037;-69
2022/03/19 13:45:11;;;;;;;5.10;0.90;;;;;;;10.96;44.56;103500.94;6034317;28;20462;-73
2022/03/19 13:48:08;;;;;;;3.08;1.10;;;;;;;10.90;44.73;103498.63;6025730;28;20118;-71
2022/03/19 13:51:04;;;;;;;2.92;0.90;;;;;;;11.18;44.44;103482.94;6025675;28;20054;-72
2022/03/19 13:53:59;;;;;;;2.75;1.10;;;;;;;11.34;45.29;103481.19;6026209;28;20032;-72